Cape Lisburne LRRS Airport Cape Lisburne US
ICAO: PALU
IATA:
Category: Medium
Scheduled Services:

Elevation: 16 ft
TransAlt. 18000 ft.

Airport Communications:
ANCHORAGE CNTR:119.65
KOTZEBUE RDO:122.3
CTAF/UNICOM:126.2

PALU Zoom In..

Runways:

(A) RW 08 length 4805 ft width 135 ft
---- / hdg 84

(B) RW 26 length 4805 ft width 135 ft
---- / hdg 264

Location; PALU
Day. 22 / Time. 01.55 Zulu
* Altimeter: 29.74
* Temperature: -02° c. -28.4°f.
* Wind from: 080° Speed 14 kn.
Dewpoint: -03° c.
Visibility: 10 Statute Miles.
Clouds: Overcast 600 ft.

PALU 220155Z AUTO 08014KT 10SM OVC006 M02/M03 A2974 RMK AO2 SLP072 T10211026 $


Wind From 080°
Speed 14 kn.

 
 
jpsmedia.com for Web Design SOUNDCLOUD worldairports.se 2018   terms of use